Details From RJFF - Fukuoka
To RJGG - Chubu Centrair Intl
Flight Number -
Tags Decoded
Created
Modified
Stats Distance 333 nm / 616 km
Max Altitude 0 ft / 0 m
Waypoints 4
Social Downloads 5
Likes 0
Share VATSIM

Download

Looking for another format? Having issues loading an existing format? Contact us
Advertisement - Login to hide

Notes

Decoded

Route

RJFF IWC BIWWA RJGG

ID Type Via Altitude Latitude Longitude Leg Dist Tot Dist Heading (true) Name
O RJFF APT - 0 ft / 0 m 33.59692˚ 130.44319˚ - 0 nm - -
IWC VOR - 0 ft / 0 m 34.07946˚ 132.14727˚ 89 nm 89 nm 71° / 72° KUGA VORTAC
BIWWA FIX - 0 ft / 0 m 35.11808˚ 136.25486˚ 212 nm 302 nm 72° / 74° -
O RJGG APT - 0 ft / 0 m 34.87389˚ 136.80168˚ 30 nm 332 nm 118° / 119° -

Altitude Profile

Advertisement - Login to hide

Weather


0- 5 10 15 20 25 30 35+ Temperature / ° C

Clouds and Precipitation
Forecast for 2018-05-28 00:00 UTC. Updated 3 hours ago

Ground ~20,000 ft ~40,000 ft Winds

RJFF

Details ICAO RJFF (FUK)
Name FUKUOKA
Region Japan
Timezone Asia/Tokyo (UTC+9.0)
Stats Elevation 32 ft / 10 m (AMSL)
Location 33.585943° 130.450686°
Runways 1
Magnetic Variation 7.482° W

METAR

RJFF 280130Z 15003KT 040V210 9999 FEW008 SCT100 OVC120 23/19 Q1010

Decode

TAF

TAF AMD RJFF 280112Z 2801/2906 14006KT 9999 -RA FEW010 SCT030 BKN045 TEMPO 2812/2818 4000 -SHRA BR BECMG 2903/2906 32007KT

Decode

Departure Runways

ID Width Length Bearing (true) Bearing (mag) Surface Threshold Offset Overrun Length
16 197 ft / 60 m 9,217 ft / 2,810 m 150.35° 157.83° Asphalt 0 ft / 0 m 719 ft / 219 m
34 197 ft / 60 m 9,217 ft / 2,810 m 330.35° 337.83° Asphalt 0 ft / 0 m 801 ft / 244 m

RJGG

Details ICAO RJGG (NGO)
Name CHUBU CENTRAIR INTL
Region Japan
Timezone Asia/Tokyo (UTC+9.0)
Stats Elevation 15 ft / 5 m (AMSL)
Location 34.858414° 136.805408°
Runways 1
Magnetic Variation 7.610° W

METAR

RJGG 280130Z 17010KT 9999 FEW015 SCT170 BKN/// 23/18 Q1013 NOSIG

Decode

TAF

TAF RJGG 272305Z 2800/2906 16010KT 9999 FEW030 BECMG 2815/2818 04004KT TEMPO 2818/2821 4000 BR BECMG 2900/2903 16010KT

Decode

Destination Runways

ID Width Length Bearing (true) Bearing (mag) Surface Threshold Offset Overrun Length
18 197 ft / 60 m 11,511 ft / 3,509 m 168.81° 176.42° Asphalt 0 ft / 0 m 197 ft / 60 m
36 197 ft / 60 m 11,511 ft / 3,509 m 348.81° 356.42° Asphalt 0 ft / 0 m 197 ft / 60 m

Approach Navaids

Runway Type Ident Frequency Range Bearing (true) Bearing (mag) Slope Elevation
18 Localiser ICY 109.70 MHz 25 nm / 46 km 168.79° 176.40° - 12 ft / 4 m (AMSL)
18 Glidescope ICY 109.70 MHz 25 nm / 46 km 176.00° 183.61° 3.00° 12 ft / 4 m (AMSL)
36 Localiser ICX 111.90 MHz 25 nm / 46 km 348.79° 356.40° - 12 ft / 4 m (AMSL)
36 Glidescope ICX 111.90 MHz 25 nm / 46 km 356.00° 3.61° 3.00° 12 ft / 4 m (AMSL)

Popular Alternatives